AYPY/POM METAR and TAF weather

Enter ICAO airport designator
Station Type Date Time Source
AYPY METAR 2021/09/24 04:00 UTC NOAA

AYPY 240400Z 14015KT 9999 HZ SCT035 BKN100 30/23 1008=


Station Type Date Time Source
AYPY Decoded METAR 2021/09/24 04:00 UTC NOAA

Moresby, Papua New Guinea (AYPY) 09-26S 147-13E 49M
Sep 24, 2021 - 12:00 AM EDT / 2021.09.24 0400 UTC
Wind: from the SE (140 degrees) at 17 MPH (15 KT):0
Visibility: greater than 7 mile(s):0
Sky conditions: mostly cloudy
Weather: haze
Temperature: 86 F (30 C)
Heat index: 93.4 F (34.1 C):1
Dew Point: 73 F (23 C)
Relative Humidity: 66%
ob: AYPY 240400Z 14015KT 9999 HZ SCT035 BKN100 30/23 1008=
cycle: 4

Station Type Date Time Source
AYPY TAF 2021/09/24 00:57 UTC NOAA

TAF TAF AYPY 232230Z 2400/2424 14012KT 9999 SCT040 BKN130
FM240500 17015KT 9999 -SHRA SCT018 SCT030 BKN130 PROB30 INTER 2406/2409 5000 +TSRA BKN008 FEW018CB

Example: see airport list